Time;durP1;ratioP1;P1;durP2;ratioP2;P2;SDS_P1;SDS_P2;PMS_P1;PMS_P2;Temp;Humidity;BMP_temperature;BMP_pressure;BME280_temperature;BME280_humidity;BME280_pressure;Samples;Min_cycle;Max_cycle;Signal;HPM_P1;HPM_P2
2022/11/01 00:01:51;;;;;;;7.40;3.05;;;;;;;13.85;81.16;98230.44;5070590;28;20068;-56
2022/11/01 00:04:18;;;;;;;5.32;4.82;;;;;;;13.82;80.88;98225.38;5071056;28;20051;-50
2022/11/01 00:06:45;;;;;;;6.20;3.65;;;;;;;13.74;81.39;98226.56;5077991;28;20128;-54
2022/11/01 00:09:12;;;;;;;3.20;2.72;;;;;;;13.71;81.12;98224.09;5078117;28;20072;-54
2022/11/01 00:11:39;;;;;;;3.25;2.53;;;;;;;13.72;80.69;98230.16;5074135;28;20052;-54
2022/11/01 00:14:06;;;;;;;3.42;2.78;;;;;;;13.67;81.06;98221.69;5077807;28;20131;-47
2022/11/01 00:16:33;;;;;;;4.47;2.65;;;;;;;13.68;81.14;98228.63;5076506;28;20074;-50
2022/11/01 00:18:59;;;;;;;7.50;2.88;;;;;;;13.67;80.10;98227.75;5077564;28;20067;-54
2022/11/01 00:21:26;;;;;;;3.08;2.88;;;;;;;13.61;79.89;98218.47;5077404;28;20132;-54
2022/11/01 00:23:53;;;;;;;3.97;2.40;;;;;;;13.58;79.60;98225.56;5075268;28;20693;-50
2022/11/01 00:26:21;;;;;;;3.85;2.47;;;;;;;13.56;79.30;98230.84;5074129;28;21513;-54
2022/11/01 00:28:48;;;;;;;5.90;2.45;;;;;;;13.51;78.88;98224.16;5064309;28;20131;-50
2022/11/01 00:31:17;;;;;;;4.53;1.85;;;;;;;13.44;79.55;98219.19;5075526;28;20681;-52
2022/11/01 00:33:44;;;;;;;4.18;2.58;;;;;;;13.49;78.89;98217.28;5068005;28;20135;-50
2022/11/01 00:36:11;;;;;;;12.90;2.67;;;;;;;13.51;79.50;98222.38;5075619;28;20135;-53
2022/11/01 00:38:37;;;;;;;5.22;2.22;;;;;;;13.49;78.66;98212.06;5075019;28;20139;-53
2022/11/01 00:41:04;;;;;;;3.28;1.83;;;;;;;13.51;79.21;98218.97;5072989;28;20048;-49
2022/11/01 00:43:32;;;;;;;4.95;1.95;;;;;;;13.48;78.79;98215.56;5060681;28;20056;-47
2022/11/01 00:45:59;;;;;;;2.70;2.00;;;;;;;13.46;78.73;98213.91;5059702;28;20056;-56
2022/11/01 00:48:26;;;;;;;4.70;2.47;;;;;;;13.44;78.23;98205.34;5060467;28;20102;-48
2022/11/01 00:50:53;;;;;;;2.83;1.90;;;;;;;13.37;78.25;98195.22;5058615;28;20068;-51
2022/11/01 00:53:20;;;;;;;3.33;1.77;;;;;;;13.40;78.66;98203.81;5059459;28;20052;-52
2022/11/01 00:55:47;;;;;;;4.55;2.28;;;;;;;13.36;78.28;98198.72;5058534;28;20139;-51
2022/11/01 00:58:14;;;;;;;2.30;0.60;;;;;;;13.28;78.20;98206.03;5060290;28;20558;-49
2022/11/01 01:00:40;;;;;;;4.70;1.60;;;;;;;13.28;77.95;98206.03;5058893;28;20044;-52
2022/11/01 01:03:07;;;;;;;3.65;3.28;;;;;;;13.16;77.75;98196.13;5060411;28;20440;-50
2022/11/01 01:05:34;;;;;;;3.17;1.88;;;;;;;13.11;77.66;98194.59;5061195;28;20139;-54
2022/11/01 01:08:02;;;;;;;2.30;1.45;;;;;;;13.03;76.93;98201.88;5059970;28;20698;-47
2022/11/01 01:10:28;;;;;;;4.28;1.70;;;;;;;12.92;77.02;98209.28;5057344;28;20932;-53
2022/11/01 01:12:55;;;;;;;6.75;1.60;;;;;;;12.87;76.72;98195.63;5060655;28;20036;-50
2022/11/01 01:15:21;;;;;;;4.75;1.42;;;;;;;12.84;76.98;98200.03;5057340;28;20130;-49
2022/11/01 01:17:48;;;;;;;3.05;1.85;;;;;;;12.82;76.74;98201.88;5055062;28;20131;-54
2022/11/01 01:20:15;;;;;;;7.00;1.63;;;;;;;12.73;75.72;98200.50;5056697;28;20040;-50
2022/11/01 01:22:41;;;;;;;2.78;1.38;;;;;;;12.72;76.03;98197.97;5056938;28;20048;-49
2022/11/01 01:25:09;;;;;;;3.15;1.52;;;;;;;12.69;75.84;98195.47;5059421;28;20126;-48
2022/11/01 01:27:36;;;;;;;3.15;1.92;;;;;;;12.65;76.46;98202.56;5056180;28;20040;-51
2022/11/01 01:30:06;;;;;;;3.80;1.00;;;;;;;12.60;76.85;98200.16;5062707;28;20459;-53
2022/11/01 01:32:33;;;;;;;;;;;;;;;12.39;77.46;98201.88;5057530;28;20048;-53
2022/11/01 01:35:00;;;;;;;2.65;1.92;;;;;;;12.46;77.02;98200.72;5061272;28;19921;-49
2022/11/01 01:37:26;;;;;;;2.85;1.65;;;;;;;12.43;77.49;98202.59;5071865;28;20044;-51
2022/11/01 01:39:53;;;;;;;5.20;2.38;;;;;;;12.40;77.64;98203.53;5057140;28;20152;-50
2022/11/01 01:47:37;;;;;;;4.18;0.77;;;;;;;12.36;77.22;98206.34;5031483;28;20393;-52
2022/11/01 01:52:49;;;;;;;3.45;0.40;;;;;;;12.33;76.81;98208.16;5051789;28;21055;-47
2022/11/01 01:55:21;;;;;;;4.03;0.40;;;;;;;12.31;76.13;98199.59;5014192;28;20145;-53
2022/11/01 01:57:49;;;;;;;3.65;0.40;;;;;;;12.27;77.25;98208.41;5012413;28;20121;-53
2022/11/01 02:00:16;;;;;;;8.43;0.55;;;;;;;12.23;76.89;98206.84;5011911;28;20041;-54
2022/11/01 02:02:43;;;;;;;4.22;0.98;;;;;;;12.28;76.67;98199.69;5015945;28;20065;-52
2022/11/01 02:05:37;;;;;;;2.92;0.43;;;;;;;12.24;77.20;98198.13;5011825;28;20073;-49
2022/11/01 02:08:06;;;;;;;2.88;0.40;;;;;;;12.30;77.50;98200.47;5013112;28;20053;-54
2022/11/01 02:10:33;;;;;;;1.80;0.30;;;;;;;12.30;77.50;98208.25;5016206;28;20089;-53
2022/11/01 02:13:00;;;;;;;3.47;1.45;;;;;;;12.28;77.64;98204.91;5014355;28;20676;-52
2022/11/01 02:15:37;;;;;;;2.65;0.50;;;;;;;12.25;77.18;98199.81;5015231;28;20056;-56
2022/11/01 02:18:19;;;;;;;7.53;0.47;;;;;;;12.19;76.47;98189.66;5009412;28;20620;-49
2022/11/01 02:27:22;;;;;;;3.47;1.30;;;;;;;12.08;78.01;98219.50;5066570;27;20919;-52
2022/11/01 02:30:04;;;;;;;3.78;1.58;;;;;;;12.12;76.85;98219.38;5032176;28;20053;-51
2022/11/01 02:40:39;;;;;;;2.80;1.67;;;;;;;12.14;76.91;98222.75;5072569;27;20405;-53
2022/11/01 02:43:15;;;;;;;4.50;1.98;;;;;;;12.13;78.02;98224.50;5017699;28;20144;-54
2022/11/01 02:45:48;;;;;;;6.05;1.52;;;;;;;12.08;78.37;98224.69;5036591;28;20095;-54
2022/11/01 02:48:18;;;;;;;2.67;1.63;;;;;;;12.05;78.14;98218.72;5064824;28;20135;-52
2022/11/01 02:50:46;;;;;;;;;;;;;;;11.86;78.87;98226.38;5053624;28;20072;-53
2022/11/01 02:53:13;;;;;;;3.17;1.42;;;;;;;11.94;77.96;98226.91;5056444;28;19934;-52
2022/11/01 02:55:40;;;;;;;1.85;1.40;;;;;;;11.95;78.03;98221.69;5057625;28;20048;-51
2022/11/01 02:58:28;;;;;;;2.55;1.88;;;;;;;11.92;77.74;98223.56;5053191;28;20409;-52
2022/11/01 03:00:55;;;;;;;2.50;0.38;;;;;;;11.98;78.83;98223.31;5054364;28;20442;-51
2022/11/01 03:03:28;;;;;;;1.88;1.33;;;;;;;12.02;77.99;98234.44;5058598;28;20114;-53
2022/11/01 03:08:39;;;;;;;8.50;0.73;;;;;;;12.04;77.60;98233.47;5013554;28;20395;-51
2022/11/01 03:11:11;;;;;;;2.85;0.40;;;;;;;12.07;77.90;98248.09;4998805;28;20142;-50
2022/11/01 03:14:17;;;;;;;0.88;0.30;;;;;;;12.05;77.59;98252.44;4996797;28;20064;-55
2022/11/01 03:27:40;;;;;;;1.85;0.93;;;;;;;12.05;78.81;98288.78;5037997;28;20419;-51
2022/11/01 03:30:09;;;;;;;3.03;1.65;;;;;;;12.02;79.46;98300.13;5026303;28;20050;-50
2022/11/01 03:32:42;;;;;;;2.47;1.08;;;;;;;12.03;78.75;98303.56;5020871;28;20054;-51
2022/11/01 03:35:15;;;;;;;4.57;1.33;;;;;;;12.03;79.94;98314.78;5017112;28;20055;-51
2022/11/01 03:37:44;;;;;;;2.03;0.88;;;;;;;11.98;80.04;98301.13;5019276;28;20076;-49
2022/11/01 03:40:15;;;;;;;1.63;1.48;;;;;;;12.00;80.04;98293.31;5019946;28;20136;-55
2022/11/01 03:42:46;;;;;;;2.00;1.10;;;;;;;12.00;79.69;98309.72;5017032;28;20132;-53
2022/11/01 03:45:15;;;;;;;1.75;1.17;;;;;;;12.02;79.95;98317.47;5018817;28;20129;-49
2022/11/01 03:47:42;;;;;;;5.72;1.50;;;;;;;12.01;79.92;98321.78;5013903;28;20049;-52
2022/11/01 03:52:47;;;;;;;5.82;1.70;;;;;;;12.36;80.09;98342.16;5046838;27;20411;-49
2022/11/01 03:55:17;;;;;;;7.72;1.23;;;;;;;12.18;80.09;98356.69;5019085;28;20111;-47
2022/11/01 03:57:54;;;;;;;1.17;0.52;;;;;;;12.09;81.43;98365.63;4996513;28;20042;-56
2022/11/01 04:02:57;;;;;;;2.47;0.40;;;;;;;12.14;80.17;98374.13;5010140;28;20411;-50
2022/11/01 04:05:27;;;;;;;1.85;0.80;;;;;;;12.16;81.09;98387.06;4995775;28;20147;-51
2022/11/01 04:07:54;;;;;;;3.53;0.55;;;;;;;12.15;81.20;98386.19;5013286;28;20064;-55
2022/11/01 04:10:23;;;;;;;3.42;0.50;;;;;;;12.18;80.63;98390.44;4996515;28;20481;-51
2022/11/01 04:12:50;;;;;;;2.17;0.73;;;;;;;12.18;81.22;98403.41;4994700;28;20856;-49
2022/11/01 04:20:42;;;;;;;1.13;0.68;;;;;;;12.25;81.41;98433.44;5076131;27;20802;-49
2022/11/01 04:23:09;;;;;;;1.70;0.40;;;;;;;12.28;80.67;98432.47;5055462;28;20171;-56
2022/11/01 04:25:35;;;;;;;2.55;0.88;;;;;;;12.25;81.09;98442.97;5060726;28;20071;-50
2022/11/01 04:28:02;;;;;;;3.13;0.95;;;;;;;12.26;81.25;98455.88;5054199;28;20106;-48
2022/11/01 04:30:29;;;;;;;1.70;0.43;;;;;;;12.27;81.46;98461.94;5055950;28;20128;-51
2022/11/01 04:32:55;;;;;;;0.90;0.50;;;;;;;12.22;80.67;98475.06;5056207;28;20140;-51
2022/11/01 04:35:22;;;;;;;1.00;0.30;;;;;;;12.23;80.99;98470.72;5057374;28;20141;-52
2022/11/01 04:37:56;;;;;;;0.82;0.63;;;;;;;12.19;81.47;98494.19;5054867;28;20064;-49
2022/11/01 04:40:23;;;;;;;1.08;0.35;;;;;;;12.20;80.56;98506.25;5052660;28;20135;-51
2022/11/01 04:42:52;;;;;;;1.98;0.30;;;;;;;12.14;80.45;98513.41;5055875;28;20107;-53
2022/11/01 04:45:19;;;;;;;1.85;0.82;;;;;;;12.11;80.91;98523.91;5053855;28;20114;-51
2022/11/01 04:47:53;;;;;;;0.73;0.65;;;;;;;12.01;80.54;98524.19;5054719;28;20080;-51
2022/11/01 04:50:20;;;;;;;1.35;0.43;;;;;;;11.97;79.40;98553.72;5046014;28;20127;-50
2022/11/01 04:52:47;;;;;;;2.17;0.52;;;;;;;11.89;78.57;98560.91;5037152;28;20164;-55
2022/11/01 04:55:14;;;;;;;1.80;0.95;;;;;;;11.81;79.62;98574.13;5040405;28;20052;-49
2022/11/01 04:57:41;;;;;;;2.63;0.80;;;;;;;11.76;78.02;98592.41;5038125;28;20528;-53
2022/11/01 05:00:10;;;;;;;1.58;0.60;;;;;;;11.69;78.75;98596.13;5050819;28;20540;-53
2022/11/01 05:02:38;;;;;;;1.58;0.65;;;;;;;11.59;77.57;98605.06;5054555;28;20106;-53
2022/11/01 05:05:07;;;;;;;2.55;0.43;;;;;;;11.55;77.85;98614.69;5053576;28;20671;-52
2022/11/01 05:07:34;;;;;;;1.73;0.65;;;;;;;11.47;77.08;98638.22;5053258;28;20059;-51
2022/11/01 05:10:01;;;;;;;1.90;0.40;;;;;;;11.39;77.80;98637.59;5057902;28;20055;-53
2022/11/01 05:12:27;;;;;;;0.95;0.40;;;;;;;11.37;77.25;98655.81;5055028;28;20138;-50
2022/11/01 05:14:54;;;;;;;3.13;0.82;;;;;;;11.31;76.38;98654.22;5056888;28;20347;-52
2022/11/01 05:17:22;;;;;;;3.42;0.73;;;;;;;11.28;77.35;98675.03;5051494;28;20064;-50
2022/11/01 05:19:49;;;;;;;3.22;1.02;;;;;;;11.25;77.94;98677.72;5051376;28;20732;-51
2022/11/01 05:22:16;;;;;;;1.45;0.88;;;;;;;11.14;77.41;98677.16;5055420;28;20044;-53
2022/11/01 05:24:43;;;;;;;1.75;0.80;;;;;;;11.17;77.44;98677.06;5051904;28;20041;-50
2022/11/01 05:27:10;;;;;;;0.55;0.30;;;;;;;11.16;76.45;98685.75;5037779;28;20045;-52
2022/11/01 05:29:36;;;;;;;2.05;0.90;;;;;;;11.13;77.57;98696.19;5033518;28;20128;-51
2022/11/01 05:32:03;;;;;;;1.80;0.30;;;;;;;11.08;77.68;98700.66;5019174;28;20446;-55
2022/11/01 05:34:30;;;;;;;2.97;0.75;;;;;;;11.08;77.75;98713.63;5018194;28;20045;-52
2022/11/01 05:36:56;;;;;;;2.80;0.45;;;;;;;11.03;77.50;98722.38;5023447;28;20050;-51
2022/11/01 05:39:23;;;;;;;0.55;0.30;;;;;;;11.01;76.48;98721.53;5022149;28;20048;-51
2022/11/01 05:41:49;;;;;;;2.08;0.45;;;;;;;11.00;76.58;98721.56;5021155;28;20124;-53
2022/11/01 05:44:16;;;;;;;1.52;0.55;;;;;;;10.97;77.03;98743.22;5020771;28;20073;-52
2022/11/01 05:46:43;;;;;;;1.80;0.88;;;;;;;10.92;77.31;98752.88;5018259;28;20140;-53
2022/11/01 05:49:09;;;;;;;2.17;0.40;;;;;;;10.94;77.60;98743.31;5019291;28;20068;-51
2022/11/01 05:51:38;;;;;;;1.35;0.90;;;;;;;10.86;76.63;98745.25;5021251;28;20136;-52
2022/11/01 05:54:04;;;;;;;4.03;0.60;;;;;;;10.87;77.21;98759.88;5020901;28;20049;-52
2022/11/01 05:56:31;;;;;;;4.95;0.95;;;;;;;10.88;77.63;98761.63;5023052;28;20049;-50
2022/11/01 05:58:57;;;;;;;7.10;0.60;;;;;;;10.85;76.13;98772.03;5026592;28;20385;-51
2022/11/01 06:01:24;;;;;;;6.20;0.73;;;;;;;10.83;76.83;98768.63;5037809;28;20146;-51
2022/11/01 06:03:50;;;;;;;4.00;0.82;;;;;;;10.83;76.69;98766.03;5044036;28;20044;-54
2022/11/01 06:06:17;;;;;;;5.15;0.70;;;;;;;10.82;77.17;98769.53;5041866;28;20733;-50
2022/11/01 06:08:44;;;;;;;4.72;0.70;;;;;;;10.78;76.82;98756.63;5040295;28;20056;-49
2022/11/01 06:11:11;;;;;;;5.28;1.05;;;;;;;10.73;77.06;98771.44;5044769;28;20540;-53
2022/11/01 06:13:37;;;;;;;8.43;0.95;;;;;;;10.77;76.88;98772.22;5044389;28;20490;-51
2022/11/01 06:16:05;;;;;;;6.28;0.95;;;;;;;10.77;77.52;98767.91;5045538;28;20132;-51
2022/11/01 06:18:32;;;;;;;5.97;1.17;;;;;;;10.77;77.13;98765.31;5027552;28;20064;-50
2022/11/01 06:20:58;;;;;;;5.68;1.48;;;;;;;10.79;76.85;98766.13;5038168;28;20139;-52
2022/11/01 06:23:25;;;;;;;5.97;1.42;;;;;;;10.84;77.07;98768.59;5043560;28;20080;-50
2022/11/01 06:25:58;;;;;;;6.35;1.13;;;;;;;10.89;77.91;98755.53;5038873;28;20838;-50
2022/11/01 06:28:25;;;;;;;10.02;1.05;;;;;;;10.95;77.71;98760.56;5036054;28;21087;-52
2022/11/01 06:30:51;;;;;;;7.07;0.73;;;;;;;10.98;78.03;98765.66;5023012;28;20453;-51
2022/11/01 06:33:18;;;;;;;9.90;1.80;;;;;;;11.04;76.89;98760.34;5023897;28;20041;-51
2022/11/01 06:35:45;;;;;;;4.18;1.48;;;;;;;11.06;77.86;98765.47;5021862;28;20080;-50
2022/11/01 06:38:12;;;;;;;6.90;0.70;;;;;;;11.08;77.21;98770.63;5021794;28;20124;-49
2022/11/01 06:40:38;;;;;;;12.85;1.42;;;;;;;11.07;77.98;98768.94;5026332;28;20125;-56
2022/11/01 06:43:05;;;;;;;13.25;1.35;;;;;;;11.06;78.02;98773.25;5022318;28;20504;-50
2022/11/01 06:45:32;;;;;;;9.40;1.00;;;;;;;11.10;77.25;98779.19;5029128;28;20048;-53
2022/11/01 06:47:58;;;;;;;7.28;0.75;;;;;;;11.12;77.75;98773.09;5037500;28;20179;-51
2022/11/01 06:50:25;;;;;;;5.53;0.73;;;;;;;11.16;77.37;98779.03;5035367;28;20057;-52
2022/11/01 06:52:56;;;;;;;9.13;1.02;;;;;;;11.19;78.78;98776.38;5038245;28;20820;-51
2022/11/01 06:55:23;;;;;;;7.05;0.77;;;;;;;11.18;78.22;98772.09;5028372;28;20117;-49
2022/11/01 06:57:56;;;;;;;10.13;1.08;;;;;;;11.17;78.37;98775.56;5037634;28;20055;-52
2022/11/01 07:00:23;;;;;;;5.07;1.02;;;;;;;11.23;79.00;98775.41;5024667;28;20513;-53
2022/11/01 07:05:35;;;;;;;7.72;2.75;;;;;;;11.31;79.38;98782.97;5035853;28;20407;-52
2022/11/01 07:08:06;;;;;;;10.13;3.28;;;;;;;11.38;79.13;98786.28;5016384;28;20050;-54
2022/11/01 07:10:35;;;;;;;7.90;2.78;;;;;;;11.41;79.66;98788.75;5017520;28;20100;-53
2022/11/01 07:13:04;;;;;;;13.55;2.67;;;;;;;11.47;78.65;98780.84;5016013;28;20065;-56
2022/11/01 07:15:31;;;;;;;11.75;2.28;;;;;;;11.51;79.25;98785.03;5016891;28;20096;-50
2022/11/01 07:17:59;;;;;;;9.75;3.42;;;;;;;11.54;79.32;98784.97;5009943;28;20077;-53
2022/11/01 07:20:28;;;;;;;10.95;2.30;;;;;;;11.59;79.45;98784.84;5011491;28;20506;-53
2022/11/01 07:22:59;;;;;;;13.15;2.90;;;;;;;11.65;78.63;98786.44;5013370;28;20166;-52
2022/11/01 07:25:27;;;;;;;6.60;2.10;;;;;;;11.67;79.62;98787.22;5011414;28;20056;-51
2022/11/01 07:27:54;;;;;;;6.72;2.35;;;;;;;11.73;79.35;98784.47;4995999;28;20045;-51
2022/11/01 07:30:21;;;;;;;8.60;1.90;;;;;;;11.73;78.94;98779.28;5026096;28;20222;-55
2022/11/01 07:32:48;;;;;;;5.13;2.70;;;;;;;11.73;79.25;98779.28;5009010;28;20062;-53
2022/11/01 07:35:15;;;;;;;9.35;2.38;;;;;;;11.72;79.35;98787.09;5027701;28;20658;-52
2022/11/01 07:37:42;;;;;;;8.50;1.88;;;;;;;11.73;78.29;98779.28;5011905;28;20185;-55
2022/11/01 07:40:09;;;;;;;9.27;2.60;;;;;;;11.75;78.44;98803.41;5014963;28;21465;-54
2022/11/01 07:42:44;;;;;;;12.52;2.35;;;;;;;11.91;78.85;98792.59;5011887;28;20108;-49
2022/11/01 07:45:12;;;;;;;15.55;2.92;;;;;;;12.19;79.05;98799.63;5011433;28;20140;-55
2022/11/01 07:47:39;;;;;;;9.45;1.95;;;;;;;12.43;79.07;98807.59;5013101;28;20081;-49
2022/11/01 07:50:06;;;;;;;8.20;3.05;;;;;;;12.52;77.27;98815.09;5012568;28;20409;-52
2022/11/01 07:52:33;;;;;;;11.30;2.38;;;;;;;12.56;78.48;98808.91;5008571;28;20128;-54
2022/11/01 07:54:59;;;;;;;9.85;1.40;;;;;;;12.78;77.15;98803.03;5008673;28;20482;-51
2022/11/01 07:57:26;;;;;;;5.82;1.67;;;;;;;13.22;77.67;98805.09;5006234;28;20056;-49
2022/11/01 07:59:52;;;;;;;11.20;2.28;;;;;;;13.49;75.96;98810.28;5006655;28;20069;-55
2022/11/01 08:02:19;;;;;;;9.25;2.15;;;;;;;13.49;75.78;98812.03;5012641;28;20065;-51
2022/11/01 08:04:46;;;;;;;8.05;1.17;;;;;;;13.51;75.12;98825.81;5008883;28;20471;-51
2022/11/01 08:07:12;;;;;;;7.63;2.85;;;;;;;13.84;75.46;98822.06;5008786;28;20053;-53
2022/11/01 08:09:41;;;;;;;10.02;2.22;;;;;;;14.40;74.86;98831.28;5011116;28;20581;-53
2022/11/01 08:12:07;;;;;;;8.45;2.22;;;;;;;14.85;73.27;98823.53;5008376;28;20080;-46
2022/11/01 08:14:34;;;;;;;7.03;2.15;;;;;;;15.34;72.43;98818.97;5015217;28;20073;-48
2022/11/01 08:17:01;;;;;;;7.97;1.75;;;;;;;15.81;71.59;98826.50;4993522;28;20405;-55
2022/11/01 08:19:27;;;;;;;6.68;2.47;;;;;;;15.94;69.83;98818.09;4999707;28;20152;-51
2022/11/01 08:21:58;;;;;;;10.77;2.70;;;;;;;15.75;70.04;98825.94;4996049;28;20054;-50
2022/11/01 08:24:26;;;;;;;6.50;2.78;;;;;;;15.70;70.98;98822.69;5000117;28;20050;-51
2022/11/01 08:26:52;;;;;;;7.55;2.70;;;;;;;15.84;70.69;98835.94;4995924;28;20140;-50
2022/11/01 08:29:19;;;;;;;5.50;0.93;;;;;;;15.69;69.69;98847.91;4999338;28;20701;-55
2022/11/01 08:31:46;;;;;;;3.85;1.63;;;;;;;15.42;70.26;98856.88;4996038;28;20046;-53
2022/11/01 08:34:13;;;;;;;5.63;2.03;;;;;;;15.14;70.35;98862.38;4999367;28;20121;-53
2022/11/01 08:36:42;;;;;;;5.45;2.10;;;;;;;14.89;70.55;98856.38;4977126;28;20057;-50
2022/11/01 08:39:09;;;;;;;5.82;0.65;;;;;;;14.68;71.29;98865.88;4996724;28;20516;-54
2022/11/01 08:41:36;;;;;;;14.27;2.55;;;;;;;14.45;71.65;98858.94;5003504;28;20149;-50
2022/11/01 08:44:03;;;;;;;11.93;2.83;;;;;;;14.31;72.36;98867.25;5001093;28;20064;-53
2022/11/01 08:46:29;;;;;;;7.00;3.05;;;;;;;14.17;72.20;98867.75;5005444;28;20052;-54
2022/11/01 08:48:59;;;;;;;5.40;1.88;;;;;;;14.04;72.50;98865.63;5005736;28;20076;-51
2022/11/01 08:51:26;;;;;;;6.18;1.83;;;;;;;13.95;72.77;98878.97;5005968;28;20057;-49
2022/11/01 08:53:54;;;;;;;10.18;2.20;;;;;;;13.83;73.60;98878.50;5005374;28;20133;-56
2022/11/01 08:56:23;;;;;;;6.88;1.98;;;;;;;13.73;73.42;98858.91;5002653;28;20050;-54
2022/11/01 08:58:51;;;;;;;4.93;2.03;;;;;;;13.70;73.21;98861.59;5002475;28;20093;-55
2022/11/01 09:01:19;;;;;;;5.60;2.25;;;;;;;13.63;73.82;98879.19;5001041;28;20053;-51
2022/11/01 09:03:46;;;;;;;4.80;2.50;;;;;;;13.56;73.66;98865.53;5001330;28;20056;-54
2022/11/01 09:06:13;;;;;;;6.80;2.85;;;;;;;13.51;73.74;98869.19;5002950;28;20049;-50
2022/11/01 09:08:40;;;;;;;8.60;1.83;;;;;;;13.45;74.63;98878.84;5004409;28;20045;-53
2022/11/01 09:11:06;;;;;;;4.10;2.10;;;;;;;13.45;74.34;98883.22;5003219;28;20057;-52
2022/11/01 09:13:33;;;;;;;7.45;2.17;;;;;;;13.46;74.42;98879.72;5001322;28;20050;-51
2022/11/01 09:16:05;;;;;;;5.30;1.92;;;;;;;13.58;74.67;98900.13;5005916;28;20042;-52
2022/11/01 09:18:32;;;;;;;7.72;2.88;;;;;;;13.70;74.50;98887.63;5000417;28;20144;-50
2022/11/01 09:20:59;;;;;;;7.22;2.50;;;;;;;13.93;74.41;98888.56;4998903;28;20096;-51
2022/11/01 09:23:26;;;;;;;4.03;1.60;;;;;;;14.03;73.73;98915.13;5000595;28;20046;-52
2022/11/01 09:25:59;;;;;;;6.25;2.65;;;;;;;14.08;73.51;98908.84;5004759;28;20516;-50
2022/11/01 09:28:26;;;;;;;7.00;2.72;;;;;;;14.37;73.57;98914.78;5002692;28;20577;-56
2022/11/01 09:31:02;;;;;;;5.93;0.95;;;;;;;15.26;74.57;98907.97;5001124;28;20473;-53
2022/11/01 09:33:46;;;;;;;3.90;1.77;;;;;;;16.30;72.54;98915.81;5000872;28;20136;-51
2022/11/01 09:36:12;;;;;;;5.90;1.85;;;;;;;17.06;71.25;98929.84;5002257;28;20128;-52
2022/11/01 09:38:39;;;;;;;8.02;3.10;;;;;;;17.81;70.09;98926.22;5003572;28;20138;-53
2022/11/01 09:44:05;;;;;;;4.63;0.98;;;;;;;18.40;67.05;98941.53;5045835;27;20436;-53
2022/11/01 09:46:41;;;;;;;3.90;1.08;;;;;;;18.69;64.65;98948.78;5021445;28;20069;-54
2022/11/01 09:49:11;;;;;;;3.28;0.50;;;;;;;18.77;64.89;98951.84;5018291;28;20515;-52
2022/11/01 09:51:38;;;;;;;3.15;0.50;;;;;;;18.73;64.15;98953.78;5014781;28;20050;-52
2022/11/01 09:54:07;;;;;;;2.08;0.65;;;;;;;18.37;64.50;98955.66;5016932;28;20057;-52
2022/11/01 09:56:43;;;;;;;3.47;0.65;;;;;;;17.83;63.63;98958.41;5020069;28;20132;-55
2022/11/01 10:10:33;;;;;;;5.55;1.92;;;;;;;17.13;65.74;98965.25;5058346;28;20397;-53
2022/11/01 10:15:55;;;;;;;3.60;0.65;;;;;;;18.29;63.74;98973.56;5016579;27;20399;-55
2022/11/01 10:21:04;;;;;;;4.80;0.73;;;;;;;19.41;61.87;98965.91;5033018;28;20889;-51
2022/11/01 10:23:40;;;;;;;2.42;0.65;;;;;;;19.72;60.44;98967.59;5013457;28;20104;-54
2022/11/01 10:26:14;;;;;;;5.78;0.60;;;;;;;19.75;59.87;98964.78;5018667;28;20168;-51
2022/11/01 10:29:00;;;;;;;3.80;0.70;;;;;;;19.57;59.25;98976.34;5032108;28;20053;-50
2022/11/01 10:31:28;;;;;;;3.95;1.08;;;;;;;19.23;59.74;98985.22;5016067;28;20155;-50
2022/11/01 10:34:01;;;;;;;4.43;0.43;;;;;;;18.97;60.11;98984.00;5019660;28;20053;-52
2022/11/01 10:36:32;;;;;;;9.02;0.93;;;;;;;18.68;60.05;98997.75;5015966;28;20124;-50
2022/11/01 10:39:29;;;;;;;3.63;0.45;;;;;;;18.30;59.76;98995.41;5020465;28;20074;-56
2022/11/01 10:42:16;;;;;;;4.60;0.70;;;;;;;18.01;60.76;99011.66;5019447;28;20046;-54
2022/11/01 10:44:50;;;;;;;4.05;1.15;;;;;;;17.74;61.27;98999.00;5014044;28;20057;-51
2022/11/01 10:47:18;;;;;;;5.03;1.13;;;;;;;17.54;62.02;99010.44;5012862;28;20073;-57
2022/11/01 10:49:51;;;;;;;2.22;0.90;;;;;;;17.34;62.05;99007.03;5012498;28;20137;-54
2022/11/01 10:52:45;;;;;;;4.03;0.70;;;;;;;17.17;62.07;99031.38;5017203;28;20064;-53
2022/11/01 10:55:18;;;;;;;5.53;0.40;;;;;;;17.04;62.47;99012.72;5018497;28;20183;-54
2022/11/01 10:57:55;;;;;;;3.60;0.50;;;;;;;16.92;63.09;99025.44;5013366;28;20132;-55
2022/11/01 11:00:22;;;;;;;5.43;0.77;;;;;;;16.85;62.74;99031.88;5014430;28;20722;-50
2022/11/01 11:02:55;;;;;;;2.95;0.93;;;;;;;16.73;62.89;99011.53;5009913;28;20073;-53
2022/11/01 11:05:24;;;;;;;10.02;0.65;;;;;;;16.62;63.54;99025.91;5010936;28;20077;-53
2022/11/01 11:07:51;;;;;;;5.50;0.98;;;;;;;16.57;63.30;99012.19;5022596;28;20165;-55
2022/11/01 11:10:25;;;;;;;3.95;0.32;;;;;;;16.49;63.39;99014.31;5015814;28;20046;-53
2022/11/01 11:12:59;;;;;;;2.10;0.95;;;;;;;16.50;64.19;99008.16;5016675;28;20050;-50
2022/11/01 11:15:50;;;;;;;6.95;0.60;;;;;;;16.39;64.17;99009.50;5013010;28;20096;-50
2022/11/01 11:18:24;;;;;;;5.28;1.15;;;;;;;16.37;64.33;99008.69;5016548;28;20737;-54
2022/11/01 11:20:56;;;;;;;5.63;0.55;;;;;;;16.30;64.26;99009.88;5015161;28;20558;-55
2022/11/01 11:23:25;;;;;;;3.55;0.60;;;;;;;16.27;64.96;99005.63;5009780;28;20049;-50
2022/11/01 11:25:59;;;;;;;4.03;0.43;;;;;;;16.27;64.26;99005.63;5014373;28;20069;-51
2022/11/01 11:28:31;;;;;;;7.05;0.80;;;;;;;16.23;64.58;99003.22;5018452;28;20128;-49
2022/11/01 11:33:55;;;;;;;5.95;1.95;;;;;;;16.02;64.51;99021.50;5037498;27;20408;-51
2022/11/01 11:36:28;;;;;;;5.32;1.92;;;;;;;15.94;65.10;99016.56;5000165;28;20054;-57
2022/11/01 11:38:54;;;;;;;5.70;2.55;;;;;;;15.82;64.73;99015.31;4998190;28;20050;-56
2022/11/01 11:41:29;;;;;;;7.13;3.95;;;;;;;15.76;64.89;99016.44;4995803;28;20121;-52
2022/11/01 11:43:56;;;;;;;3.42;1.67;;;;;;;15.73;64.53;99020.91;4995073;28;20042;-57
2022/11/01 11:46:23;;;;;;;5.15;2.72;;;;;;;15.73;64.86;99010.47;4995241;28;20129;-51
2022/11/01 11:51:28;;;;;;;2.65;0.50;;;;;;;15.69;64.85;99025.41;5022884;28;20953;-57
2022/11/01 11:54:36;;;;;;;8.23;1.02;;;;;;;15.60;64.84;99021.41;5016282;28;20045;-53
2022/11/01 11:57:17;;;;;;;3.60;0.30;;;;;;;15.56;65.08;99030.28;5014991;28;20139;-56
2022/11/01 11:59:48;;;;;;;2.38;0.85;;;;;;;15.54;65.38;99045.16;5018521;28;20041;-54
2022/11/01 12:05:02;;;;;;;1.52;0.77;;;;;;;15.51;60.72;99068.75;5038199;27;20393;-52
2022/11/01 12:13:37;;;;;;;0.50;0.50;;;;;;;14.32;63.42;99065.16;5042375;28;20416;-56
2022/11/01 12:16:23;;;;;;;4.13;0.25;;;;;;;14.20;63.94;99049.94;5017710;28;20156;-54
2022/11/01 12:21:34;;;;;;;1.45;0.50;;;;;;;13.89;65.03;99038.81;5022014;28;20414;-54
2022/11/01 12:24:41;;;;;;;1.45;0.50;;;;;;;13.77;65.30;99034.84;5015616;28;20073;-56
2022/11/01 12:27:13;;;;;;;0.80;0.75;;;;;;;13.72;64.96;99041.94;5029567;28;20058;-53
2022/11/01 12:29:46;;;;;;;1.23;0.40;;;;;;;13.67;65.42;99039.50;5020344;28;20506;-53
2022/11/01 12:32:17;;;;;;;1.05;0.30;;;;;;;13.61;65.93;99039.66;5015830;28;20045;-53
2022/11/01 12:34:47;;;;;;;1.13;1.02;;;;;;;13.53;66.88;99058.13;5020377;28;20042;-56
2022/11/01 12:37:18;;;;;;;;;;;;;;;13.27;67.29;99056.31;5014226;28;20653;-51
2022/11/01 12:42:27;;;;;;;2.28;1.38;;;;;;;13.21;68.16;99057.34;5080104;27;20394;-54
2022/11/01 12:45:05;;;;;;;2.67;1.65;;;;;;;13.17;68.51;99050.53;5077679;28;20131;-48
2022/11/01 12:47:40;;;;;;;1.63;1.45;;;;;;;13.08;67.72;99042.06;5075289;28;20048;-51
2022/11/01 12:52:55;;;;;;;2.08;1.00;;;;;;;13.46;68.45;99021.03;5044523;27;20407;-56
2022/11/01 12:55:40;;;;;;;2.92;1.05;;;;;;;13.09;68.91;99012.59;5018110;28;20081;-51
2022/11/01 12:58:13;;;;;;;2.33;0.40;;;;;;;13.04;69.09;98998.88;5017062;28;20080;-56
2022/11/01 13:09:20;;;;;;;1.60;1.50;;;;;;;12.88;70.70;99002.84;5023633;28;20413;-54
2022/11/01 13:14:37;;;;;;;1.67;0.38;;;;;;;12.87;70.13;99001.13;5041284;28;20890;-54
2022/11/01 13:19:57;;;;;;;2.40;0.85;;;;;;;13.28;69.34;98999.06;5030648;28;20387;-56
2022/11/01 13:22:37;;;;;;;1.30;1.20;;;;;;;13.10;70.97;98992.63;5014710;28;20053;-51
2022/11/01 13:25:18;;;;;;;1.20;1.10;;;;;;;13.08;71.02;98990.09;5018426;28;20136;-53
2022/11/01 13:28:09;;;;;;;1.65;1.20;;;;;;;13.12;71.03;98985.66;5014273;28;20464;-53
2022/11/01 13:30:41;;;;;;;0.73;0.40;;;;;;;13.14;70.74;98977.81;5014259;28;20621;-56
2022/11/01 13:33:27;;;;;;;1.73;1.63;;;;;;;13.06;71.32;98978.91;5016927;28;20136;-54